createdAt,value
2022-11-15T00:00:23.249Z,100705.38
2022-11-15T00:03:08.352Z,100705.81
2022-11-15T00:05:54.507Z,100703.06
2022-11-15T00:08:39.646Z,100708.94
2022-11-15T00:11:24.869Z,100710.47
2022-11-15T00:14:10.236Z,100710.22
2022-11-15T00:16:55.358Z,100699.09
2022-11-15T00:19:40.756Z,100699.78
2022-11-15T00:22:25.898Z,100695.69
2022-11-15T00:25:11.418Z,100700.59
2022-11-15T00:28:01.214Z,100695.38
2022-11-15T00:30:46.187Z,100687.81
2022-11-15T00:33:32.053Z,100700.53
2022-11-15T00:36:17.463Z,100693.59
2022-11-15T00:39:05.557Z,100701.09
2022-11-15T00:41:50.726Z,100702.38
2022-11-15T00:44:36.030Z,100705.72
2022-11-15T00:47:21.318Z,100705.78
2022-11-15T00:50:06.955Z,100703.25
2022-11-15T00:52:51.984Z,100710.63
2022-11-15T00:55:37.255Z,100699.25
2022-11-15T00:58:22.509Z,100698.38
2022-11-15T01:01:13.937Z,100695.31
2022-11-15T01:04:01.527Z,100698.78
2022-11-15T01:06:47.226Z,100698.59
2022-11-15T01:09:32.357Z,100701.34
2022-11-15T01:12:17.633Z,100692.44
2022-11-15T01:15:04.366Z,100690.66
2022-11-15T01:17:49.539Z,100682.63
2022-11-15T01:20:34.922Z,100691.19
2022-11-15T01:23:20.418Z,100682.44
2022-11-15T01:26:07.861Z,100680.28
2022-11-15T01:28:53.277Z,100685.13
2022-11-15T01:31:39.008Z,100672.34
2022-11-15T01:34:24.379Z,100676.56
2022-11-15T01:37:09.572Z,100669.88
2022-11-15T01:39:54.839Z,100663.75
2022-11-15T01:42:40.177Z,100669.75
2022-11-15T01:45:25.734Z,100666.38
2022-11-15T01:48:11.785Z,100666.47
2022-11-15T01:50:57.804Z,100659.53
2022-11-15T01:53:46.525Z,100661.88
2022-11-15T01:56:37.037Z,100664.00
2022-11-15T01:59:23.036Z,100664.13
2022-11-15T02:02:08.095Z,100662.59
2022-11-15T02:04:53.564Z,100651.38
2022-11-15T02:07:39.023Z,100641.16
2022-11-15T02:10:25.853Z,100633.59
2022-11-15T02:13:11.241Z,100630.59
2022-11-15T02:16:21.253Z,100631.44
2022-11-15T02:19:18.419Z,100624.28
2022-11-15T02:22:06.361Z,100632.41
2022-11-15T02:25:16.138Z,100639.78
2022-11-15T02:28:35.243Z,100639.94
2022-11-15T02:31:27.261Z,100630.94
2022-11-15T02:34:12.477Z,100633.88
2022-11-15T02:37:08.486Z,100628.63
2022-11-15T02:40:05.760Z,100623.81
2022-11-15T02:43:31.474Z,100619.69
2022-11-15T02:46:22.868Z,100624.31
2022-11-15T02:49:13.326Z,100625.19
2022-11-15T02:51:58.664Z,100626.50
2022-11-15T02:54:53.594Z,100608.31
2022-11-15T02:58:00.855Z,100621.78
2022-11-15T03:01:02.050Z,100619.31
2022-11-15T03:04:03.966Z,100626.94
2022-11-15T03:07:05.788Z,100620.97
2022-11-15T03:09:58.618Z,100623.44
2022-11-15T03:13:09.472Z,100621.78
2022-11-15T03:16:06.488Z,100614.06
2022-11-15T03:18:56.724Z,100614.97
2022-11-15T03:21:42.131Z,100623.03
2022-11-15T03:24:30.644Z,100629.13
2022-11-15T03:27:20.567Z,100625.19
2022-11-15T03:30:09.346Z,100630.47
2022-11-15T03:32:57.790Z,100619.97
2022-11-15T03:35:45.928Z,100618.47
2022-11-15T03:38:35.034Z,100621.25
2022-11-15T03:41:45.841Z,100617.13
2022-11-15T03:44:39.567Z,100619.19
2022-11-15T03:47:30.163Z,100618.47
2022-11-15T03:50:19.513Z,100616.53
2022-11-15T03:53:04.945Z,100613.13
2022-11-15T03:55:50.016Z,100606.38
2022-11-15T03:58:35.333Z,100602.09
2022-11-15T04:01:20.778Z,100608.75
2022-11-15T04:04:06.040Z,100615.22
2022-11-15T04:06:51.356Z,100615.13
2022-11-15T04:09:56.581Z,100609.41
2022-11-15T04:12:44.602Z,100612.34
2022-11-15T04:15:30.349Z,100615.81
2022-11-15T04:18:15.500Z,100610.69
2022-11-15T04:21:19.485Z,100611.09
2022-11-15T04:24:13.744Z,100611.31
2022-11-15T04:26:58.975Z,100609.31
2022-11-15T04:29:44.159Z,100611.69
2022-11-15T04:32:29.431Z,100615.66
2022-11-15T04:35:14.677Z,100607.06
2022-11-15T04:38:01.113Z,100614.59
2022-11-15T04:40:46.297Z,100611.09
2022-11-15T04:43:31.708Z,100613.88
2022-11-15T04:46:17.744Z,100614.44
2022-11-15T04:49:03.078Z,100619.78
2022-11-15T04:51:48.301Z,100616.38
2022-11-15T04:54:33.561Z,100618.53
2022-11-15T04:57:19.276Z,100614.41
2022-11-15T05:00:07.043Z,100614.63
2022-11-15T05:03:10.597Z,100615.66
2022-11-15T05:05:55.801Z,100618.88
2022-11-15T05:08:41.154Z,100617.78
2022-11-15T05:11:28.196Z,100608.63
2022-11-15T05:14:13.239Z,100612.38
2022-11-15T05:16:58.232Z,100615.44
2022-11-15T05:19:43.567Z,100609.16
2022-11-15T05:22:29.105Z,100608.88
2022-11-15T05:25:14.088Z,100603.63
2022-11-15T05:27:59.427Z,100609.78
2022-11-15T05:30:44.523Z,100604.09
2022-11-15T05:33:30.466Z,100600.88
2022-11-15T05:36:45.761Z,100606.28
2022-11-15T05:39:30.936Z,100588.22
2022-11-15T05:42:17.007Z,100586.25
2022-11-15T05:45:06.708Z,100590.59
2022-11-15T05:47:53.505Z,100594.03
2022-11-15T05:50:39.624Z,100595.31
2022-11-15T05:53:26.944Z,100611.44
2022-11-15T05:56:13.451Z,100598.81
2022-11-15T05:59:00.166Z,100606.09
2022-11-15T06:01:45.370Z,100594.84
2022-11-15T06:04:30.891Z,100598.13
2022-11-15T06:07:16.279Z,100593.31
2022-11-15T06:10:01.770Z,100604.72
2022-11-15T06:12:46.857Z,100596.81
2022-11-15T06:15:34.987Z,100606.66
2022-11-15T06:18:19.925Z,100605.16
2022-11-15T06:21:05.528Z,100613.13
2022-11-15T06:23:50.564Z,100610.97
2022-11-15T06:26:35.946Z,100621.19
2022-11-15T06:29:21.364Z,100624.41
2022-11-15T06:32:06.919Z,100619.75
2022-11-15T06:34:52.042Z,100620.78
2022-11-15T06:37:37.247Z,100616.72
2022-11-15T06:40:22.798Z,100620.56
2022-11-15T06:43:08.443Z,100622.22
2022-11-15T06:45:53.706Z,100628.28
2022-11-15T06:48:39.350Z,100626.22
2022-11-15T06:51:24.324Z,100622.72
2022-11-15T06:54:09.617Z,100631.44
2022-11-15T06:56:54.815Z,100633.91
2022-11-15T06:59:40.748Z,100641.81
2022-11-15T07:02:26.216Z,100633.16
2022-11-15T07:05:12.155Z,100636.97
2022-11-15T07:07:58.795Z,100640.00
2022-11-15T07:10:44.127Z,100632.53
2022-11-15T07:13:34.512Z,100635.59
2022-11-15T07:16:20.717Z,100640.66
2022-11-15T07:19:05.651Z,100644.19
2022-11-15T07:21:51.036Z,100651.44
2022-11-15T07:24:36.434Z,100647.88
2022-11-15T07:27:21.743Z,100651.84
2022-11-15T07:30:07.627Z,100655.13
2022-11-15T07:33:00.562Z,100652.06
2022-11-15T07:35:49.189Z,100654.56
2022-11-15T07:38:40.973Z,100653.72
2022-11-15T07:41:28.082Z,100661.19
2022-11-15T07:44:13.353Z,100652.47
2022-11-15T07:46:59.106Z,100660.38
2022-11-15T07:49:44.582Z,100661.88
2022-11-15T07:52:29.810Z,100660.94
2022-11-15T07:55:14.970Z,100659.63
2022-11-15T07:58:09.333Z,100657.94
2022-11-15T08:00:54.496Z,100647.47
2022-11-15T08:03:39.861Z,100652.34
2022-11-15T08:06:25.009Z,100645.28
2022-11-15T08:09:10.281Z,100647.00
2022-11-15T08:11:55.449Z,100651.13
2022-11-15T08:14:40.652Z,100649.59
2022-11-15T08:17:26.390Z,100648.69
2022-11-15T08:20:12.054Z,100647.00
2022-11-15T08:22:58.284Z,100652.66
2022-11-15T08:25:43.534Z,100649.75
2022-11-15T08:28:29.083Z,100642.69
2022-11-15T08:31:17.716Z,100646.22
2022-11-15T08:34:04.268Z,100646.13
2022-11-15T08:36:49.606Z,100651.41
2022-11-15T08:39:35.003Z,100649.97
2022-11-15T08:42:20.395Z,100654.75
2022-11-15T08:45:06.040Z,100651.91
2022-11-15T08:47:54.167Z,100653.47
2022-11-15T08:50:39.774Z,100655.44
2022-11-15T08:53:25.105Z,100655.00
2022-11-15T08:56:12.018Z,100658.84
2022-11-15T08:58:57.255Z,100642.72
2022-11-15T09:01:42.448Z,100643.38
2022-11-15T09:04:27.638Z,100645.56
2022-11-15T09:07:14.385Z,100642.06
2022-11-15T09:09:59.662Z,100649.75
2022-11-15T09:12:44.900Z,100655.31
2022-11-15T09:15:30.253Z,100647.94
2022-11-15T09:18:16.426Z,100641.88
2022-11-15T09:21:03.549Z,100647.81
2022-11-15T09:23:53.069Z,100652.28
2022-11-15T09:26:38.404Z,100650.00
2022-11-15T09:29:23.703Z,100649.38
2022-11-15T09:32:08.919Z,100655.31
2022-11-15T09:34:54.168Z,100659.72
2022-11-15T09:37:39.700Z,100653.09
2022-11-15T09:40:25.264Z,100649.84
2022-11-15T09:43:13.146Z,100648.59
2022-11-15T09:46:04.212Z,100655.63
2022-11-15T09:49:03.612Z,100645.78
2022-11-15T09:51:55.127Z,100648.78
2022-11-15T09:57:28.018Z,100647.81
2022-11-15T10:00:45.853Z,100653.09
2022-11-15T10:03:34.593Z,100650.84
2022-11-15T10:06:06.365Z,100644.38
2022-11-15T10:08:33.530Z,100643.28
2022-11-15T10:11:37.368Z,100641.75
2022-11-15T10:14:25.292Z,100649.47
2022-11-15T10:17:01.158Z,100635.56
2022-11-15T10:19:30.734Z,100639.81
2022-11-15T10:22:09.447Z,100638.00
2022-11-15T10:24:43.271Z,100635.28
2022-11-15T10:27:17.565Z,100631.28
2022-11-15T10:29:50.644Z,100623.00
2022-11-15T10:32:20.117Z,100632.88
2022-11-15T10:34:48.155Z,100620.72
2022-11-15T10:37:15.292Z,100625.75
2022-11-15T10:39:41.932Z,100623.84
2022-11-15T10:42:29.303Z,100615.91
2022-11-15T10:45:32.313Z,100602.63
2022-11-15T10:48:14.989Z,100604.38
2022-11-15T10:50:47.059Z,100601.56
2022-11-15T10:53:27.725Z,100593.47
2022-11-15T10:55:58.754Z,100603.34
2022-11-15T10:58:45.048Z,100597.31
2022-11-15T11:01:22.820Z,100595.13
2022-11-15T11:04:07.807Z,100594.44
2022-11-15T11:06:54.803Z,100586.44
2022-11-15T11:09:39.027Z,100589.47
2022-11-15T11:12:10.842Z,100581.09
2022-11-15T11:14:40.130Z,100581.69
2022-11-15T11:17:30.381Z,100584.53
2022-11-15T11:20:19.511Z,100573.25
2022-11-15T11:22:54.927Z,100580.00
2022-11-15T11:25:39.643Z,100582.38
2022-11-15T11:28:42.267Z,100568.47
2022-11-15T11:31:27.446Z,100576.50
2022-11-15T11:34:32.301Z,100564.03
2022-11-15T11:37:18.779Z,100566.31
2022-11-15T11:39:48.482Z,100571.56
2022-11-15T11:42:31.240Z,100569.34
2022-11-15T11:45:17.471Z,100567.94
2022-11-15T11:48:01.316Z,100558.84
2022-11-15T11:50:29.024Z,100546.50
2022-11-15T11:53:00.822Z,100540.13
2022-11-15T11:55:44.514Z,100539.06
2022-11-15T11:58:24.084Z,100540.31
2022-11-15T12:01:12.924Z,100543.44
2022-11-15T12:03:48.723Z,100530.97
2022-11-15T12:06:40.130Z,100545.31
2022-11-15T12:09:18.942Z,100531.84
2022-11-15T12:11:54.534Z,100533.97
2022-11-15T12:14:31.223Z,100536.72
2022-11-15T12:16:58.890Z,100542.66
2022-11-15T12:19:26.531Z,100538.50
2022-11-15T12:22:14.282Z,100535.31
2022-11-15T12:24:47.315Z,100535.38
2022-11-15T12:27:31.655Z,100529.25
2022-11-15T12:30:03.734Z,100514.00
2022-11-15T12:32:36.278Z,100516.22
2022-11-15T12:35:06.342Z,100516.09
2022-11-15T12:37:38.981Z,100506.88
2022-11-15T12:40:24.437Z,100507.28
2022-11-15T12:42:59.861Z,100515.50
2022-11-15T12:45:35.890Z,100497.66
2022-11-15T12:48:37.283Z,100504.72
2022-11-15T12:51:04.592Z,100504.84
2022-11-15T12:53:33.795Z,100500.38
2022-11-15T12:56:18.885Z,100499.06
2022-11-15T12:58:51.484Z,100501.66
2022-11-15T13:01:39.100Z,100496.81
2022-11-15T13:04:21.006Z,100502.38
2022-11-15T13:07:01.155Z,100493.63
2022-11-15T13:09:30.830Z,100490.88
2022-11-15T13:11:59.310Z,100495.59
2022-11-15T13:14:37.940Z,100488.78
2022-11-15T13:17:19.730Z,100493.50
2022-11-15T13:19:59.636Z,100487.50
2022-11-15T13:23:00.088Z,100490.94
2022-11-15T13:25:53.981Z,100479.16
2022-11-15T13:28:46.336Z,100474.88
2022-11-15T13:31:31.041Z,100467.91
2022-11-15T13:34:02.396Z,100471.19
2022-11-15T13:36:35.231Z,100469.69
2022-11-15T13:39:26.225Z,100466.56
2022-11-15T13:41:54.066Z,100453.41
2022-11-15T13:44:38.800Z,100448.28
2022-11-15T13:47:30.080Z,100436.44
2022-11-15T13:50:01.918Z,100439.31
2022-11-15T13:52:34.915Z,100436.28
2022-11-15T13:55:23.796Z,100441.75
2022-11-15T13:57:55.201Z,100440.22
2022-11-15T14:00:31.040Z,100447.03
2022-11-15T14:03:06.229Z,100449.44
2022-11-15T14:05:32.920Z,100434.50
2022-11-15T14:08:13.962Z,100442.88
2022-11-15T14:10:41.168Z,100437.81
2022-11-15T14:13:28.027Z,100435.50
2022-11-15T14:15:54.557Z,100431.13
2022-11-15T14:18:51.470Z,100432.34
2022-11-15T14:21:19.902Z,100429.19
2022-11-15T14:23:47.085Z,100433.09
2022-11-15T14:26:34.151Z,100424.28
2022-11-15T14:29:23.248Z,100427.50
2022-11-15T14:31:50.220Z,100431.38
2022-11-15T14:34:17.007Z,100422.06
2022-11-15T14:36:43.741Z,100425.03
2022-11-15T14:39:10.596Z,100429.09
2022-11-15T14:41:40.873Z,100418.72
2022-11-15T14:44:10.210Z,100406.16
2022-11-15T14:46:36.980Z,100419.72
2022-11-15T14:49:03.601Z,100421.13
2022-11-15T14:51:33.848Z,100436.69
2022-11-15T14:54:00.469Z,100428.81
2022-11-15T14:56:27.252Z,100425.31
2022-11-15T14:58:55.874Z,100428.00
2022-11-15T15:01:25.212Z,100420.91
2022-11-15T15:03:53.265Z,100436.03
2022-11-15T15:06:20.129Z,100430.19
2022-11-15T15:08:49.088Z,100432.47
2022-11-15T15:11:30.999Z,100421.59
2022-11-15T15:14:00.532Z,100413.97
2022-11-15T15:16:27.464Z,100420.19
2022-11-15T15:18:54.512Z,100415.34
2022-11-15T15:21:24.106Z,100423.75
2022-11-15T15:23:51.779Z,100416.66
2022-11-15T15:26:18.769Z,100420.22
2022-11-15T15:28:45.416Z,100427.84
2022-11-15T15:31:12.328Z,100417.03
2022-11-15T15:33:39.113Z,100419.50
2022-11-15T15:36:06.433Z,100414.81
2022-11-15T15:38:33.545Z,100407.94
2022-11-15T15:41:02.895Z,100416.19
2022-11-15T15:43:29.558Z,100415.50
2022-11-15T15:45:56.221Z,100406.94
2022-11-15T15:48:22.872Z,100411.75
2022-11-15T15:50:50.153Z,100407.25
2022-11-15T15:53:18.296Z,100415.34
2022-11-15T15:55:44.947Z,100414.63
2022-11-15T15:58:11.562Z,100411.13
2022-11-15T16:00:38.791Z,100423.03
2022-11-15T16:03:05.558Z,100415.44
2022-11-15T16:05:32.247Z,100417.03
2022-11-15T16:07:58.965Z,100412.31
2022-11-15T16:10:28.163Z,100401.78
2022-11-15T16:12:56.377Z,100401.56
2022-11-15T16:15:25.163Z,100400.75
2022-11-15T16:17:54.517Z,100399.59
2022-11-15T16:20:32.021Z,100397.28
2022-11-15T16:23:02.088Z,100398.72
2022-11-15T16:25:45.435Z,100390.09
2022-11-15T16:28:37.535Z,100382.00
2022-11-15T16:31:11.391Z,100376.97
2022-11-15T16:33:38.578Z,100379.94
2022-11-15T16:36:07.139Z,100377.88
2022-11-15T16:38:34.306Z,100365.06
2022-11-15T16:41:02.907Z,100364.69
2022-11-15T16:43:29.604Z,100363.28
2022-11-15T16:45:56.276Z,100360.25
2022-11-15T16:48:25.503Z,100358.81
2022-11-15T16:50:59.056Z,100366.28
2022-11-15T16:53:28.841Z,100345.97
2022-11-15T16:55:56.133Z,100347.34
2022-11-15T16:58:23.101Z,100348.09
2022-11-15T17:00:54.430Z,100347.94
2022-11-15T17:03:25.227Z,100360.00
2022-11-15T17:05:52.406Z,100344.63
2022-11-15T17:08:21.705Z,100348.19
2022-11-15T17:10:48.447Z,100356.97
2022-11-15T17:13:15.267Z,100352.47
2022-11-15T17:15:42.185Z,100359.34
2022-11-15T17:18:12.614Z,100351.53
2022-11-15T17:20:40.845Z,100352.16
2022-11-15T17:23:14.326Z,100348.25
2022-11-15T17:25:41.392Z,100342.59
2022-11-15T17:28:08.022Z,100350.28
2022-11-15T17:30:35.735Z,100344.44
2022-11-15T17:33:02.431Z,100331.88
2022-11-15T17:35:29.118Z,100337.03
2022-11-15T17:37:55.976Z,100338.88
2022-11-15T17:40:22.613Z,100336.59
2022-11-15T17:42:49.384Z,100349.34
2022-11-15T17:45:16.244Z,100329.34
2022-11-15T17:47:43.917Z,100338.97
2022-11-15T17:50:11.598Z,100344.94
2022-11-15T17:52:38.278Z,100334.66
2022-11-15T17:55:05.193Z,100342.41
2022-11-15T17:57:31.912Z,100336.63
2022-11-15T17:59:58.471Z,100332.34
2022-11-15T18:02:25.098Z,100336.06
2022-11-15T18:04:51.750Z,100328.34
2022-11-15T18:07:18.539Z,100331.03
2022-11-15T18:09:45.496Z,100339.44
2022-11-15T18:12:12.477Z,100327.69
2022-11-15T18:14:39.311Z,100333.34
2022-11-15T18:17:06.169Z,100320.75
2022-11-15T18:19:32.886Z,100321.47
2022-11-15T18:22:00.900Z,100335.16
2022-11-15T18:24:30.922Z,100315.19
2022-11-15T18:26:59.394Z,100326.03
2022-11-15T18:29:26.122Z,100322.56
2022-11-15T18:31:55.741Z,100322.63
2022-11-15T18:34:31.815Z,100314.25
2022-11-15T18:36:58.464Z,100316.00
2022-11-15T18:39:25.150Z,100310.75
2022-11-15T18:41:52.296Z,100306.56
2022-11-15T18:44:19.312Z,100306.28
2022-11-15T18:46:46.494Z,100294.38
2022-11-15T18:49:14.868Z,100289.09
2022-11-15T18:51:42.233Z,100292.25
2022-11-15T18:54:11.210Z,100283.97
2022-11-15T18:56:38.331Z,100285.41
2022-11-15T18:59:06.201Z,100285.72
2022-11-15T19:01:35.773Z,100283.34
2022-11-15T19:04:09.736Z,100294.16
2022-11-15T19:06:41.322Z,100296.91
2022-11-15T19:09:09.136Z,100291.19
2022-11-15T19:11:39.517Z,100287.47
2022-11-15T19:14:11.342Z,100290.69
2022-11-15T19:16:44.826Z,100300.69
2022-11-15T19:19:17.011Z,100285.69
2022-11-15T19:21:44.133Z,100291.31
2022-11-15T19:24:11.444Z,100295.34
2022-11-15T19:26:39.059Z,100290.69
2022-11-15T19:29:07.699Z,100294.69
2022-11-15T19:31:34.549Z,100291.94
2022-11-15T19:34:04.489Z,100299.63
2022-11-15T19:36:33.938Z,100295.72
2022-11-15T19:39:05.262Z,100308.56
2022-11-15T19:41:32.464Z,100304.06
2022-11-15T19:43:59.162Z,100293.31
2022-11-15T19:46:26.858Z,100287.16
2022-11-15T19:48:54.064Z,100281.16
2022-11-15T19:51:22.990Z,100284.94
2022-11-15T19:53:53.015Z,100280.88
2022-11-15T19:56:20.514Z,100281.22
2022-11-15T19:58:52.109Z,100282.34
2022-11-15T20:01:21.711Z,100285.31
2022-11-15T20:03:50.146Z,100279.91
2022-11-15T20:06:19.519Z,100276.28
2022-11-15T20:08:46.972Z,100273.59
2022-11-15T20:11:14.769Z,100275.63
2022-11-15T20:13:42.497Z,100277.50
2022-11-15T20:16:14.682Z,100262.84
2022-11-15T20:18:41.396Z,100270.69
2022-11-15T20:21:09.021Z,100272.59
2022-11-15T20:23:35.648Z,100278.34
2022-11-15T20:26:02.215Z,100271.91
2022-11-15T20:28:29.389Z,100271.59
2022-11-15T20:30:58.566Z,100263.75
2022-11-15T20:33:25.848Z,100276.91
2022-11-15T20:35:53.150Z,100276.91
2022-11-15T20:38:21.219Z,100272.06
2022-11-15T20:40:49.227Z,100267.94
2022-11-15T20:43:17.525Z,100280.50
2022-11-15T20:45:45.998Z,100269.25
2022-11-15T20:48:13.973Z,100273.25
2022-11-15T20:50:43.121Z,100263.06
2022-11-15T20:53:12.066Z,100269.34
2022-11-15T20:55:40.954Z,100259.16
2022-11-15T20:58:09.432Z,100261.53
2022-11-15T21:00:37.093Z,100260.91
2022-11-15T21:03:06.887Z,100256.63
2022-11-15T21:05:41.609Z,100258.22
2022-11-15T21:08:09.525Z,100251.47
2022-11-15T21:10:54.538Z,100256.00
2022-11-15T21:13:21.475Z,100256.34
2022-11-15T21:15:48.314Z,100248.22
2022-11-15T21:18:15.420Z,100249.28
2022-11-15T21:20:42.488Z,100229.69
2022-11-15T21:23:09.576Z,100245.66
2022-11-15T21:25:36.193Z,100239.34
2022-11-15T21:28:03.121Z,100233.75
2022-11-15T21:30:30.200Z,100239.56
2022-11-15T21:32:56.923Z,100243.84
2022-11-15T21:35:23.874Z,100247.53
2022-11-15T21:37:56.187Z,100250.56
2022-11-15T21:40:24.028Z,100243.00
2022-11-15T21:42:50.858Z,100238.31
2022-11-15T21:45:17.468Z,100251.88
2022-11-15T21:47:46.400Z,100239.31
2022-11-15T21:50:13.742Z,100241.88
2022-11-15T21:52:40.871Z,100250.59
2022-11-15T21:55:08.586Z,100238.75
2022-11-15T21:57:38.258Z,100236.75
2022-11-15T22:00:23.798Z,100232.88
2022-11-15T22:02:50.393Z,100231.84
2022-11-15T22:05:17.077Z,100238.09
2022-11-15T22:07:43.632Z,100244.22
2022-11-15T22:10:10.462Z,100230.13
2022-11-15T22:12:37.202Z,100229.84
2022-11-15T22:15:04.094Z,100228.00
2022-11-15T22:17:50.683Z,100233.59
2022-11-15T22:20:42.954Z,100238.53
2022-11-15T22:23:05.042Z,100237.09
2022-11-15T22:25:32.894Z,100222.13
2022-11-15T22:27:59.668Z,100225.53
2022-11-15T22:30:26.295Z,100228.94
2022-11-15T22:32:52.961Z,100228.56
2022-11-15T22:35:19.569Z,100217.75
2022-11-15T22:37:46.242Z,100219.38
2022-11-15T22:40:12.908Z,100224.28
2022-11-15T22:42:39.580Z,100217.00
2022-11-15T22:45:06.749Z,100215.44
2022-11-15T22:47:33.351Z,100217.50
2022-11-15T22:50:00.208Z,100212.16
2022-11-15T22:52:26.899Z,100195.03
2022-11-15T22:54:53.579Z,100194.84
2022-11-15T22:57:20.768Z,100201.34
2022-11-15T22:59:47.459Z,100208.16
2022-11-15T23:02:14.137Z,100196.72
2022-11-15T23:04:40.830Z,100206.00
2022-11-15T23:07:07.624Z,100200.44
2022-11-15T23:09:34.340Z,100203.38
2022-11-15T23:12:19.583Z,100199.13
2022-11-15T23:14:46.367Z,100200.13
2022-11-15T23:17:13.004Z,100208.16
2022-11-15T23:19:40.050Z,100205.94
2022-11-15T23:22:25.225Z,100205.06
2022-11-15T23:24:53.219Z,100196.56
2022-11-15T23:27:20.695Z,100204.34
2022-11-15T23:30:06.589Z,100205.41
2022-11-15T23:32:51.858Z,100191.00
2022-11-15T23:35:18.517Z,100201.03
2022-11-15T23:37:45.498Z,100201.22
2022-11-15T23:40:12.769Z,100189.91
2022-11-15T23:42:39.827Z,100191.34
2022-11-15T23:45:07.165Z,100192.09
2022-11-15T23:47:33.994Z,100182.44
2022-11-15T23:50:00.765Z,100173.09
2022-11-15T23:52:27.409Z,100179.63
2022-11-15T23:54:54.100Z,100178.13
2022-11-15T23:57:21.342Z,100173.09
2022-11-15T23:59:48.093Z,100172.28
